Time;durP1;ratioP1;P1;durP2;ratioP2;P2;SDS_P1;SDS_P2;PMS_P1;PMS_P2;Temp;Humidity;BMP_temperature;BMP_pressure;BME280_temperature;BME280_humidity;BME280_pressure;Samples;Min_cycle;Max_cycle;Signal;HPM_P1;HPM_P2
2022/11/29 00:01:42;;;;;;;;;;;14.50;99.90;;;;;;5073924;28;20520;-65
2022/11/29 00:04:07;;;;;;;;;;;14.40;99.90;;;;;;5074739;28;19924;-69
2022/11/29 00:06:33;;;;;;;;;;;14.50;99.90;;;;;;5078076;28;19932;-67
2022/11/29 00:09:00;;;;;;;;;;;14.40;99.90;;;;;;5077063;28;20038;-67
2022/11/29 00:14:11;;;;;;;;;;;14.40;99.90;;;;;;5074879;28;19925;-67
2022/11/29 00:16:39;;;;;;;;;;;14.20;99.90;;;;;;5057090;28;19971;-67
2022/11/29 00:19:05;;;;;;;;;;;14.50;99.90;;;;;;5062102;28;19924;-67
2022/11/29 00:21:31;;;;;;;;;;;14.50;99.90;;;;;;5076631;28;19931;-67
2022/11/29 00:23:56;;;;;;;;;;;14.70;99.90;;;;;;5076751;28;19924;-68
2022/11/29 00:26:22;;;;;;;;;;;14.60;99.90;;;;;;5075558;28;20015;-68
2022/11/29 00:28:48;;;;;;;;;;;14.70;99.90;;;;;;5064902;28;19929;-67
2022/11/29 00:31:14;;;;;;;;;;;14.50;99.90;;;;;;5076258;28;19924;-68
2022/11/29 00:33:40;;;;;;;;;;;14.50;99.90;;;;;;5075864;28;19924;-67
2022/11/29 00:36:06;;;;;;;;;;;14.50;99.90;;;;;;5076898;28;19920;-68
2022/11/29 00:38:31;;;;;;;;;;;14.70;99.90;;;;;;5075429;28;19932;-71
2022/11/29 00:40:57;;;;;;;;;;;14.40;99.90;;;;;;5076613;28;20023;-68
2022/11/29 00:43:23;;;;;;;;;;;14.40;99.90;;;;;;5076721;28;20011;-67
2022/11/29 00:45:48;;;;;;;;;;;14.60;99.90;;;;;;5060576;28;20374;-65
2022/11/29 00:48:14;;;;;;;;;;;14.40;99.90;;;;;;5056267;28;20020;-65
2022/11/29 00:50:39;;;;;;;;;;;14.40;99.90;;;;;;5071201;28;19972;-65
2022/11/29 00:53:05;;;;;;;;;;;14.60;99.90;;;;;;5076599;28;19970;-67
2022/11/29 00:55:31;;;;;;;;;;;14.40;99.90;;;;;;5076142;28;19925;-67
2022/11/29 00:57:56;;;;;;;;;;;14.60;99.90;;;;;;5074883;28;20007;-67
2022/11/29 01:00:22;;;;;;;;;;;14.60;99.90;;;;;;5075364;28;19971;-67
2022/11/29 01:02:47;;;;;;;;;;;14.40;99.90;;;;;;5060456;28;19932;-68
2022/11/29 01:05:13;;;;;;;;;;;14.40;99.90;;;;;;5056376;28;19956;-67
2022/11/29 01:07:39;;;;;;;;;;;14.50;99.90;;;;;;5056056;28;20366;-67
2022/11/29 01:10:05;;;;;;;;;;;14.60;99.90;;;;;;5059599;28;19924;-67
2022/11/29 01:12:30;;;;;;;;;;;14.50;99.90;;;;;;5076040;28;19931;-68
2022/11/29 01:14:57;;;;;;;;;;;14.60;99.90;;;;;;5057168;28;19925;-67
2022/11/29 01:17:22;;;;;;;;;;;14.40;99.90;;;;;;5076142;28;20268;-68
2022/11/29 01:19:48;;;;;;;;;;;14.50;99.90;;;;;;5059976;28;19932;-67
2022/11/29 01:22:14;;;;;;;;;;;14.60;99.90;;;;;;5073530;28;19924;-68
2022/11/29 01:24:40;;;;;;;;;;;14.50;99.90;;;;;;5075820;28;20262;-68
2022/11/29 01:27:05;;;;;;;;;;;14.40;99.90;;;;;;5075402;28;19970;-67
2022/11/29 01:29:31;;;;;;;;;;;14.60;99.90;;;;;;5075720;28;19929;-67
2022/11/29 01:31:56;;;;;;;;;;;14.50;99.90;;;;;;5075255;28;19924;-67
2022/11/29 01:34:22;;;;;;;;;;;14.50;99.90;;;;;;5074357;28;20374;-67
2022/11/29 01:36:48;;;;;;;;;;;14.50;99.90;;;;;;5059533;28;19928;-67
2022/11/29 01:39:13;;;;;;;;;;;14.60;99.90;;;;;;5058626;28;19924;-68
2022/11/29 01:41:39;;;;;;;;;;;14.60;99.90;;;;;;5074742;28;19925;-70
2022/11/29 01:44:10;;;;;;;;;;;14.80;99.90;;;;;;5075244;28;19921;-67
2022/11/29 01:46:39;;;;;;;;;;;14.70;99.90;;;;;;5075295;28;19925;-66
2022/11/29 01:49:08;;;;;;;;;;;14.70;99.90;;;;;;5075208;28;19931;-69
2022/11/29 01:51:34;;;;;;;;;;;14.20;99.90;;;;;;5073318;28;20023;-67
2022/11/29 01:54:00;;;;;;;;;;;14.50;99.90;;;;;;5057853;28;19928;-67
2022/11/29 01:56:26;;;;;;;;;;;14.90;99.90;;;;;;5055744;28;20008;-69
2022/11/29 01:58:52;;;;;;;;;;;;;;;;;;5067262;28;19951;-67
2022/11/29 02:01:18;;;;;;;;;;;14.80;99.90;;;;;;5075611;28;19924;-67
2022/11/29 02:03:43;;;;;;;;;;;14.40;99.90;;;;;;5073460;28;19932;-67
2022/11/29 02:06:09;;;;;;;;;;;14.60;99.90;;;;;;5074909;28;20374;-66
2022/11/29 02:08:36;;;;;;;;;;;14.70;99.90;;;;;;5090889;28;20300;-70
2022/11/29 02:11:14;;;;;;;;;;;14.80;99.90;;;;;;5072969;28;19929;-68
2022/11/29 02:13:55;;;;;;;;;;;14.40;99.90;;;;;;5072523;28;20429;-68
2022/11/29 02:16:20;;;;;;;;;;;14.60;99.90;;;;;;5075364;28;20271;-67
2022/11/29 02:18:46;;;;;;;;;;;14.20;99.90;;;;;;5074868;28;19927;-66
2022/11/29 02:21:18;;;;;;;;;;;14.40;99.90;;;;;;5075210;28;19928;-68
2022/11/29 02:23:59;;;;;;;;;;;14.60;99.90;;;;;;5072587;28;19920;-67
2022/11/29 02:26:25;;;;;;;;;;;14.40;99.90;;;;;;5069983;28;20383;-67
2022/11/29 02:29:03;;;;;;;;;;;14.40;99.90;;;;;;5053903;28;19927;-66
2022/11/29 02:31:37;;;;;;;;;;;14.70;99.90;;;;;;5068817;28;19925;-68
2022/11/29 02:34:09;;;;;;;;;;;14.30;99.90;;;;;;5073875;28;19931;-66
2022/11/29 02:36:35;;;;;;;;;;;14.40;99.90;;;;;;5072455;28;19930;-67
2022/11/29 02:39:04;;;;;;;;;;;14.40;99.90;;;;;;5074681;28;19925;-67
2022/11/29 02:41:49;;;;;;;;;;;14.60;99.90;;;;;;5074311;28;20378;-67
2022/11/29 02:44:29;;;;;;;;;;;14.50;99.90;;;;;;5067832;28;19986;-66
2022/11/29 02:47:01;;;;;;;;;;;14.70;99.90;;;;;;5073226;28;19975;-66
2022/11/29 02:49:46;;;;;;;;;;;14.70;99.90;;;;;;5074019;28;20336;-66
2022/11/29 02:52:19;;;;;;;;;;;14.50;99.90;;;;;;5073945;28;19928;-66
2022/11/29 02:54:46;;;;;;;;;;;14.50;99.90;;;;;;5089926;28;20386;-68
2022/11/29 02:57:20;;;;;;;;;;;14.60;99.90;;;;;;5072326;28;19925;-67
2022/11/29 02:59:46;;;;;;;;;;;14.60;99.90;;;;;;5055995;28;20009;-68
2022/11/29 03:02:12;;;;;;;;;;;14.60;99.90;;;;;;5057325;28;19987;-69
2022/11/29 03:04:47;;;;;;;;;;;14.80;99.90;;;;;;5074249;28;19932;-66
2022/11/29 03:07:31;;;;;;;;;;;14.60;99.90;;;;;;5073392;28;19924;-68
2022/11/29 03:10:15;;;;;;;;;;;14.80;99.90;;;;;;5074037;28;20327;-70
2022/11/29 03:12:45;;;;;;;;;;;14.40;99.90;;;;;;5072583;28;20298;-67
2022/11/29 03:15:16;;;;;;;;;;;14.30;99.80;;;;;;5074160;28;19977;-67
2022/11/29 03:17:54;;;;;;;;;;;14.50;99.90;;;;;;5065372;28;19925;-67
2022/11/29 03:20:38;;;;;;;;;;;14.40;99.90;;;;;;5053820;28;19925;-67
2022/11/29 03:23:33;;;;;;;;;;;14.40;99.90;;;;;;5065508;28;19928;-68
2022/11/29 03:26:05;;;;;;;;;;;14.50;99.90;;;;;;5064641;28;19983;-67
2022/11/29 03:28:38;;;;;;;;;;;14.60;99.60;;;;;;5072940;28;19970;-67
2022/11/29 03:31:05;;;;;;;;;;;14.60;99.90;;;;;;5072458;28;19978;-68
2022/11/29 03:33:31;;;;;;;;;;;14.60;99.90;;;;;;5055868;28;20105;-67
2022/11/29 03:36:08;;;;;;;;;;;14.40;99.80;;;;;;5070650;28;19947;-68
2022/11/29 03:38:40;;;;;;;;;;;14.70;99.90;;;;;;5072815;28;19924;-68
2022/11/29 03:41:06;;;;;;;;;;;;;;;;;;5077689;28;19924;-66
2022/11/29 03:43:50;;;;;;;;;;;14.60;99.90;;;;;;5075834;28;19928;-67
2022/11/29 03:46:28;;;;;;;;;;;14.40;99.80;;;;;;5077903;28;19924;-65
2022/11/29 03:48:55;;;;;;;;;;;14.70;99.90;;;;;;5075555;28;19964;-65
2022/11/29 03:51:22;;;;;;;;;;;14.70;99.80;;;;;;5092578;28;20364;-66
2022/11/29 03:53:50;;;;;;;;;;;14.60;99.80;;;;;;5076394;28;19950;-67
2022/11/29 03:56:35;;;;;;;;;;;14.40;99.80;;;;;;5110452;28;19924;-68
2022/11/29 03:59:12;;;;;;;;;;;14.40;99.70;;;;;;5077069;28;19924;-67
2022/11/29 04:01:38;;;;;;;;;;;14.70;99.80;;;;;;5075990;28;19977;-67
2022/11/29 04:04:22;;;;;;;;;;;14.40;99.40;;;;;;5077935;28;19924;-67
2022/11/29 04:06:57;;;;;;;;;;;14.70;99.80;;;;;;5075445;28;19931;-67
2022/11/29 04:09:37;;;;;;;;;;;14.40;99.70;;;;;;5075665;28;20286;-67
2022/11/29 04:12:03;;;;;;;;;;;14.50;99.80;;;;;;5077337;28;19924;-67
2022/11/29 04:14:38;;;;;;;;;;;14.80;99.90;;;;;;5076742;28;20362;-67
2022/11/29 04:17:22;;;;;;;;;;;14.40;99.80;;;;;;5076120;28;20321;-68
2022/11/29 04:20:03;;;;;;;;;;;14.60;99.90;;;;;;5075119;28;19970;-67
2022/11/29 04:22:47;;;;;;;;;;;14.60;99.90;;;;;;5076972;28;19924;-68
2022/11/29 04:25:14;;;;;;;;;;;14.40;99.80;;;;;;5071896;28;20398;-67
2022/11/29 04:27:52;;;;;;;;;;;14.50;99.80;;;;;;5055579;28;19921;-67
2022/11/29 04:30:17;;;;;;;;;;;14.40;99.80;;;;;;5062957;28;19981;-67
2022/11/29 04:33:12;;;;;;;;;;;14.40;99.80;;;;;;5075822;28;19935;-67
2022/11/29 04:35:56;;;;;;;;;;;14.80;99.90;;;;;;5061708;28;19970;-71
2022/11/29 04:38:28;;;;;;;;;;;14.70;99.90;;;;;;5076621;28;19968;-67
2022/11/29 04:41:12;;;;;;;;;;;14.60;99.80;;;;;;5090822;28;19925;-67
2022/11/29 04:43:38;;;;;;;;;;;14.60;99.90;;;;;;5061786;28;19924;-67
2022/11/29 04:46:22;;;;;;;;;;;14.60;99.80;;;;;;5056799;28;19932;-67
2022/11/29 04:48:53;;;;;;;;;;;14.80;99.90;;;;;;5056426;28;19925;-66
2022/11/29 04:51:22;;;;;;;;;;;14.70;99.80;;;;;;5062669;28;19928;-67
2022/11/29 04:53:59;;;;;;;;;;;14.60;99.80;;;;;;5077017;28;19932;-69
2022/11/29 04:56:34;;;;;;;;;;;14.70;99.80;;;;;;5075207;28;20015;-67
2022/11/29 04:59:18;;;;;;;;;;;14.80;99.80;;;;;;5076293;28;19924;-68
2022/11/29 05:01:44;;;;;;;;;;;;;;;;;;5064318;28;19932;-70
2022/11/29 05:04:19;;;;;;;;;;;14.60;99.80;;;;;;5075852;28;19973;-67
2022/11/29 05:06:48;;;;;;;;;;;14.60;99.80;;;;;;5091783;28;19932;-67
2022/11/29 05:09:20;;;;;;;;;;;14.70;99.80;;;;;;5075297;28;20385;-67
2022/11/29 05:11:58;;;;;;;;;;;14.60;99.80;;;;;;5074485;28;19932;-68
2022/11/29 05:14:24;;;;;;;;;;;14.70;99.80;;;;;;5074469;28;19932;-67
2022/11/29 05:17:08;;;;;;;;;;;14.70;99.70;;;;;;5068602;28;19925;-67
2022/11/29 05:19:40;;;;;;;;;;;14.60;99.70;;;;;;5054941;28;19994;-66
2022/11/29 05:22:06;;;;;;;;;;;14.50;99.70;;;;;;5061866;28;19932;-66
2022/11/29 05:25:04;;;;;;;;;;;14.70;99.70;;;;;;5074595;28;19924;-68
2022/11/29 05:27:30;;;;;;;;;;;14.70;99.70;;;;;;5033310;28;19932;-67
2022/11/29 05:29:57;;;;;;;;;;;14.60;99.70;;;;;;5032972;28;19975;-67
2022/11/29 05:32:24;;;;;;;;;;;14.70;99.70;;;;;;5016382;28;20067;-67
2022/11/29 05:34:53;;;;;;;;;;;14.50;99.70;;;;;;5001155;28;20395;-67
2022/11/29 05:37:18;;;;;;;;;;;14.50;99.70;;;;;;5014562;28;20275;-67
2022/11/29 05:39:53;;;;;;;;;;;14.70;99.80;;;;;;5021013;28;19925;-67
2022/11/29 05:42:26;;;;;;;;;;;14.60;99.70;;;;;;5033328;28;19925;-67
2022/11/29 05:44:59;;;;;;;;;;;14.50;99.70;;;;;;5000374;28;19978;-70
2022/11/29 05:47:34;;;;;;;;;;;14.50;99.70;;;;;;5032768;28;19948;-67
2022/11/29 05:50:08;;;;;;;;;;;14.80;99.80;;;;;;5017060;28;19926;-67
2022/11/29 05:52:34;;;;;;;;;;;;;;;;;;5033475;28;19963;-71
2022/11/29 05:55:00;;;;;;;;;;;14.80;99.80;;;;;;5033086;28;19925;-67
2022/11/29 05:57:28;;;;;;;;;;;14.40;99.70;;;;;;5016806;28;19925;-67
2022/11/29 05:59:54;;;;;;;;;;;14.40;99.70;;;;;;5016697;28;19939;-67
2022/11/29 06:02:20;;;;;;;;;;;14.50;99.80;;;;;;5009078;28;19925;-67
2022/11/29 06:04:48;;;;;;;;;;;14.90;99.80;;;;;;5074451;28;20021;-68
2022/11/29 06:07:25;;;;;;;;;;;14.80;99.80;;;;;;5074397;28;19973;-68
2022/11/29 06:09:53;;;;;;;;;;;14.60;99.70;;;;;;5074302;28;19924;-66
2022/11/29 06:12:19;;;;;;;;;;;14.50;99.70;;;;;;5074129;28;19976;-68
2022/11/29 06:15:00;;;;;;;;;;;14.50;99.70;;;;;;5074004;28;20327;-66
2022/11/29 06:17:32;;;;;;;;;;;14.60;99.70;;;;;;5074632;28;20070;-66
2022/11/29 06:20:03;;;;;;;;;;;14.30;99.60;;;;;;5074150;28;20350;-67
2022/11/29 06:22:31;;;;;;;;;;;14.40;99.70;;;;;;5089896;28;19925;-67
2022/11/29 06:25:00;;;;;;;;;;;14.70;99.80;;;;;;5065384;28;19925;-67
2022/11/29 06:27:41;;;;;;;;;;;14.40;99.70;;;;;;5054612;28;19925;-67
2022/11/29 06:30:09;;;;;;;;;;;14.60;99.80;;;;;;5054615;28;20303;-67
2022/11/29 06:32:42;;;;;;;;;;;14.50;99.70;;;;;;5064195;28;19924;-71
2022/11/29 06:35:10;;;;;;;;;;;14.50;99.70;;;;;;5073859;28;19924;-67
2022/11/29 06:37:42;;;;;;;;;;;14.50;99.70;;;;;;5074311;28;20400;-69
2022/11/29 06:40:11;;;;;;;;;;;14.70;99.80;;;;;;5072975;28;19924;-67
2022/11/29 06:42:37;;;;;;;;;;;14.70;99.80;;;;;;5060388;28;19925;-67
2022/11/29 06:45:03;;;;;;;;;;;14.60;99.80;;;;;;5070077;28;19949;-66
2022/11/29 06:47:29;;;;;;;;;;;14.50;99.80;;;;;;5074458;28;19947;-65
2022/11/29 06:50:14;;;;;;;;;;;14.70;99.80;;;;;;5072881;28;19951;-65
2022/11/29 06:52:42;;;;;;;;;;;14.40;99.70;;;;;;5074359;28;19978;-65
2022/11/29 06:55:08;;;;;;;;;;;;;;;;;;5073644;28;19947;-66
2022/11/29 06:57:37;;;;;;;;;;;14.80;99.90;;;;;;5074648;28;19925;-65
2022/11/29 07:00:15;;;;;;;;;;;14.70;99.80;;;;;;5055838;28;19925;-65
2022/11/29 07:02:40;;;;;;;;;;;14.40;99.80;;;;;;5052839;28;20382;-65
2022/11/29 07:05:25;;;;;;;;;;;14.50;99.70;;;;;;5065961;28;19931;-65
2022/11/29 07:07:51;;;;;;;;;;;14.40;99.70;;;;;;5073955;28;19925;-65
2022/11/29 07:10:17;;;;;;;;;;;14.50;99.70;;;;;;5072604;28;19946;-66
2022/11/29 07:12:44;;;;;;;;;;;14.80;99.80;;;;;;5072775;28;19924;-65
2022/11/29 07:15:17;;;;;;;;;;;14.70;99.70;;;;;;5069239;28;19928;-65
2022/11/29 07:17:46;;;;;;;;;;;14.80;99.70;;;;;;5051976;28;19976;-67
2022/11/29 07:20:14;;;;;;;;;;;14.80;99.70;;;;;;5060697;28;20023;-67
2022/11/29 07:22:40;;;;;;;;;;;14.70;99.80;;;;;;5072896;28;20298;-67
2022/11/29 07:25:18;;;;;;;;;;;14.80;99.80;;;;;;5071923;28;19924;-67
2022/11/29 07:27:46;;;;;;;;;;;14.80;99.80;;;;;;5089229;28;19925;-66
2022/11/29 07:30:12;;;;;;;;;;;14.70;99.70;;;;;;5072181;28;19978;-66
2022/11/29 07:32:41;;;;;;;;;;;14.90;99.80;;;;;;5082788;28;19929;-67
2022/11/29 07:35:22;;;;;;;;;;;14.40;99.70;;;;;;5052361;28;19925;-67
2022/11/29 07:37:48;;;;;;;;;;;;;;;;;;5054175;28;19978;-67
2022/11/29 07:40:18;;;;;;;;;;;14.80;99.80;;;;;;5064402;28;19963;-67
2022/11/29 07:42:44;;;;;;;;;;;14.60;99.70;;;;;;5089065;28;20405;-68
2022/11/29 07:45:12;;;;;;;;;;;14.90;99.80;;;;;;5073291;28;19963;-71
2022/11/29 07:47:38;;;;;;;;;;;14.50;99.70;;;;;;5073802;28;19925;-71
2022/11/29 07:50:04;;;;;;;;;;;14.90;99.80;;;;;;5064217;28;19925;-65
2022/11/29 07:52:30;;;;;;;;;;;14.60;99.70;;;;;;5070109;28;19925;-68
2022/11/29 07:54:55;;;;;;;;;;;14.70;99.70;;;;;;5072849;28;19924;-66
2022/11/29 07:57:21;;;;;;;;;;;14.60;99.70;;;;;;5072756;28;19928;-66
2022/11/29 07:59:47;;;;;;;;;;;14.60;99.70;;;;;;5073465;28;20081;-65
2022/11/29 08:02:12;;;;;;;;;;;14.50;99.70;;;;;;5072404;28;20081;-66
2022/11/29 08:04:42;;;;;;;;;;;14.80;99.70;;;;;;5073250;28;19924;-65
2022/11/29 08:07:08;;;;;;;;;;;14.90;99.70;;;;;;5072029;28;20330;-65
2022/11/29 08:09:34;;;;;;;;;;;14.70;99.60;;;;;;5072578;28;19925;-65
2022/11/29 08:11:59;;;;;;;;;;;14.70;99.70;;;;;;5072518;28;19925;-66
2022/11/29 08:14:25;;;;;;;;;;;14.80;99.70;;;;;;5072307;28;19925;-66
2022/11/29 08:16:51;;;;;;;;;;;14.70;99.70;;;;;;5072337;28;19928;-65
2022/11/29 08:19:16;;;;;;;;;;;14.70;99.70;;;;;;5071903;28;19932;-66
2022/11/29 08:21:45;;;;;;;;;;;14.70;99.70;;;;;;5073081;28;19978;-65
2022/11/29 08:24:11;;;;;;;;;;;14.70;99.70;;;;;;5072133;28;20385;-65
2022/11/29 08:26:37;;;;;;;;;;;14.70;99.60;;;;;;5075711;28;20060;-66
2022/11/29 08:29:02;;;;;;;;;;;14.70;99.70;;;;;;5077435;28;20382;-65
2022/11/29 08:31:28;;;;;;;;;;;14.90;99.80;;;;;;5075938;28;19970;-65
2022/11/29 08:33:54;;;;;;;;;;;14.80;99.70;;;;;;5076204;28;19979;-65
2022/11/29 08:36:19;;;;;;;;;;;14.90;99.70;;;;;;5076918;28;19925;-65
2022/11/29 08:38:45;;;;;;;;;;;;;;;;;;5076279;28;20002;-65
2022/11/29 08:41:12;;;;;;;;;;;14.70;99.60;;;;;;5069275;28;19928;-65
2022/11/29 08:43:37;;;;;;;;;;;14.70;99.60;;;;;;5076137;28;20289;-65
2022/11/29 08:46:03;;;;;;;;;;;14.70;99.70;;;;;;5076755;28;19931;-65
2022/11/29 08:48:29;;;;;;;;;;;14.70;99.70;;;;;;5076731;28;19925;-65
2022/11/29 08:50:54;;;;;;;;;;;14.80;99.70;;;;;;5075201;28;19925;-65
2022/11/29 08:56:04;;;;;;;;;;;14.90;99.70;;;;;;5076574;28;19967;-66
2022/11/29 08:58:30;;;;;;;;;;;14.70;99.60;;;;;;5062894;28;19956;-65
2022/11/29 09:00:55;;;;;;;;;;;14.90;99.70;;;;;;5056817;28;19925;-66
2022/11/29 09:06:06;;;;;;;;;;;15.00;99.60;;;;;;5076146;28;19924;-65
2022/11/29 09:08:31;;;;;;;;;;;15.00;99.60;;;;;;5074881;28;20453;-66
2022/11/29 09:10:57;;;;;;;;;;;15.20;99.60;;;;;;5074729;28;20015;-66
2022/11/29 09:13:22;;;;;;;;;;;15.10;99.60;;;;;;5075866;28;20348;-65
2022/11/29 09:15:48;;;;;;;;;;;15.00;99.50;;;;;;5074646;28;19932;-65
2022/11/29 09:18:14;;;;;;;;;;;14.90;99.50;;;;;;5076148;28;19925;-66
2022/11/29 09:20:43;;;;;;;;;;;14.90;99.50;;;;;;5076235;28;19947;-65
2022/11/29 09:23:09;;;;;;;;;;;15.10;99.50;;;;;;5070830;28;19947;-66
2022/11/29 09:25:35;;;;;;;;;;;15.00;99.40;;;;;;5065434;28;19925;-66
2022/11/29 09:28:01;;;;;;;;;;;14.80;99.30;;;;;;5091385;28;19936;-65
2022/11/29 09:30:30;;;;;;;;;;;15.20;99.50;;;;;;5075320;28;19925;-65
2022/11/29 09:33:01;;;;;;;;;;;14.80;99.30;;;;;;5058634;28;19924;-65
2022/11/29 09:35:27;;;;;;;;;;;14.90;99.30;;;;;;5060962;28;20312;-65
2022/11/29 09:37:53;;;;;;;;;;;15.00;99.40;;;;;;5075554;28;20031;-66
2022/11/29 09:40:19;;;;;;;;;;;15.00;99.30;;;;;;5075063;28;19925;-66
2022/11/29 09:42:52;;;;;;;;;;;15.20;99.40;;;;;;5074062;28;19930;-65
2022/11/29 09:45:18;;;;;;;;;;;14.90;99.00;;;;;;5073610;28;19925;-66
2022/11/29 09:47:56;;;;;;;;;;;14.90;99.30;;;;;;5074936;28;19930;-65
2022/11/29 09:50:42;;;;;;;;;;;15.10;99.30;;;;;;5055250;28;19935;-65
2022/11/29 09:53:11;;;;;;;;;;;15.10;99.30;;;;;;5050700;28;19924;-65
2022/11/29 09:55:37;;;;;;;;;;;;;;;;;;5071223;28;19924;-68
2022/11/29 09:58:03;;;;;;;;;;;14.90;99.20;;;;;;5074371;28;19924;-65
2022/11/29 10:00:29;;;;;;;;;;;15.00;99.20;;;;;;5073592;28;19992;-65
2022/11/29 10:02:56;;;;;;;;;;;15.30;99.30;;;;;;5075293;28;19920;-65
2022/11/29 10:05:27;;;;;;;;;;;15.20;99.30;;;;;;5073604;28;19942;-66
2022/11/29 10:07:56;;;;;;;;;;;15.00;99.20;;;;;;5075363;28;19931;-65
2022/11/29 10:10:22;;;;;;;;;;;;;;;;;;5071603;28;19975;-66
2022/11/29 10:12:52;;;;;;;;;;;15.10;99.10;;;;;;5074109;28;20431;-65
2022/11/29 10:15:18;;;;;;;;;;;15.20;99.20;;;;;;5073459;28;20267;-65
2022/11/29 10:17:47;;;;;;;;;;;15.20;99.20;;;;;;5075137;28;19931;-65
2022/11/29 10:20:30;;;;;;;;;;;15.30;99.20;;;;;;5056739;28;19924;-65
2022/11/29 10:23:18;;;;;;;;;;;15.00;99.10;;;;;;5074152;28;19931;-65
2022/11/29 10:25:45;;;;;;;;;;;15.00;99.10;;;;;;5070317;28;19925;-65
2022/11/29 10:28:11;;;;;;;;;;;;;;;;;;5074829;28;20009;-65
2022/11/29 10:30:37;;;;;;;;;;;14.80;99.00;;;;;;5074681;28;19925;-65
2022/11/29 10:33:05;;;;;;;;;;;15.20;99.10;;;;;;5074082;28;20019;-65
2022/11/29 10:35:30;;;;;;;;;;;15.30;99.20;;;;;;5056602;28;19924;-65
2022/11/29 10:37:56;;;;;;;;;;;14.90;99.00;;;;;;5073700;28;20019;-65
2022/11/29 10:40:28;;;;;;;;;;;15.10;99.10;;;;;;5069603;28;19952;-66
2022/11/29 10:42:54;;;;;;;;;;;14.90;99.10;;;;;;5052929;28;19971;-65
2022/11/29 10:45:22;;;;;;;;;;;15.00;99.00;;;;;;5054380;28;19925;-66
2022/11/29 10:47:48;;;;;;;;;;;15.00;99.00;;;;;;5053839;28;19925;-66
2022/11/29 10:50:15;;;;;;;;;;;15.20;99.10;;;;;;5053431;28;19950;-65
2022/11/29 10:52:41;;;;;;;;;;;15.30;99.10;;;;;;5052618;28;19928;-66
2022/11/29 10:55:07;;;;;;;;;;;15.20;99.20;;;;;;5054117;28;19943;-65
2022/11/29 10:57:34;;;;;;;;;;;15.30;99.20;;;;;;5053804;28;19925;-68
2022/11/29 11:00:05;;;;;;;;;;;15.30;99.10;;;;;;5037859;28;19924;-66
2022/11/29 11:02:31;;;;;;;;;;;15.30;99.30;;;;;;5054320;28;19928;-66
2022/11/29 11:04:57;;;;;;;;;;;15.20;99.30;;;;;;5069702;28;20393;-67
2022/11/29 11:07:29;;;;;;;;;;;15.30;99.20;;;;;;5069694;28;19931;-68
2022/11/29 11:09:55;;;;;;;;;;;15.30;99.20;;;;;;5052579;28;19932;-68
2022/11/29 11:12:22;;;;;;;;;;;15.60;99.30;;;;;;5052514;28;19929;-67
2022/11/29 11:14:50;;;;;;;;;;;15.40;99.20;;;;;;5054272;28;19936;-70
2022/11/29 11:17:24;;;;;;;;;;;15.00;99.00;;;;;;5053992;28;19925;-67
2022/11/29 11:20:00;;;;;;;;;;;15.20;98.80;;;;;;5086357;28;20019;-67
2022/11/29 11:22:26;;;;;;;;;;;15.20;98.80;;;;;;5035991;28;20401;-66
2022/11/29 11:24:56;;;;;;;;;;;15.00;98.80;;;;;;5052427;28;19925;-65
2022/11/29 11:27:29;;;;;;;;;;;15.30;98.90;;;;;;5053601;28;19974;-65
2022/11/29 11:29:54;;;;;;;;;;;15.60;98.90;;;;;;5070820;28;19932;-68
2022/11/29 11:32:20;;;;;;;;;;;15.40;99.00;;;;;;5069278;28;20467;-68
2022/11/29 11:34:51;;;;;;;;;;;15.30;98.90;;;;;;5062265;28;19925;-66
2022/11/29 11:37:21;;;;;;;;;;;15.60;99.10;;;;;;5073989;28;19959;-67
2022/11/29 11:39:48;;;;;;;;;;;15.30;99.00;;;;;;5073326;28;20374;-67
2022/11/29 11:42:36;;;;;;;;;;;15.40;99.00;;;;;;5073914;28;19978;-66
2022/11/29 11:45:03;;;;;;;;;;;15.00;98.90;;;;;;5072802;28;19925;-65
2022/11/29 11:47:29;;;;;;;;;;;15.40;99.00;;;;;;5071305;28;19924;-66
2022/11/29 11:50:02;;;;;;;;;;;15.10;98.90;;;;;;5071001;28;19925;-66
2022/11/29 11:52:47;;;;;;;;;;;15.10;98.90;;;;;;5074056;28;19947;-67
2022/11/29 11:55:25;;;;;;;;;;;15.20;98.80;;;;;;5072323;28;20396;-66
2022/11/29 11:57:57;;;;;;;;;;;15.00;98.70;;;;;;5073106;28;19936;-66
2022/11/29 12:00:42;;;;;;;;;;;15.20;98.80;;;;;;5075010;28;19932;-70
2022/11/29 12:03:27;;;;;;;;;;;15.30;98.90;;;;;;5059440;28;19924;-67
2022/11/29 12:05:53;;;;;;;;;;;15.20;98.90;;;;;;5060774;28;19931;-68
2022/11/29 12:08:18;;;;;;;;;;;15.30;98.90;;;;;;5062216;28;20324;-71
2022/11/29 12:10:44;;;;;;;;;;;15.40;98.90;;;;;;5077517;28;19970;-65
2022/11/29 12:13:17;;;;;;;;;;;15.20;98.90;;;;;;5075913;28;19932;-66
2022/11/29 12:15:42;;;;;;;;;;;15.20;98.90;;;;;;5109227;27;19931;-66
2022/11/29 12:18:09;;;;;;;;;;;;;;;;;;5069474;28;20340;-69
2022/11/29 12:20:51;;;;;;;;;;;15.30;98.90;;;;;;5076835;28;19925;-65
2022/11/29 12:23:30;;;;;;;;;;;15.40;98.90;;;;;;5075768;28;20336;-66
2022/11/29 12:25:56;;;;;;;;;;;;;;;;;;5076959;28;19925;-66
2022/11/29 12:28:22;;;;;;;;;;;;;;;;;;5075529;28;19928;-72
2022/11/29 12:30:48;;;;;;;;;;;;;;;;;;5073111;28;20267;-73
2022/11/29 12:33:14;;;;;;;;;;;15.20;98.80;;;;;;5076265;28;19978;-72
2022/11/29 12:35:42;;;;;;;;;;;15.40;98.80;;;;;;5076737;28;19978;-73
2022/11/29 12:38:08;;;;;;;;;;;15.20;98.80;;;;;;5075725;28;19925;-66
2022/11/29 12:40:33;;;;;;;;;;;15.70;98.90;;;;;;5075700;28;20298;-66
2022/11/29 12:43:02;;;;;;;;;;;15.50;98.80;;;;;;5076991;28;20306;-65
2022/11/29 12:45:31;;;;;;;;;;;15.20;98.70;;;;;;5077147;28;19924;-66
2022/11/29 12:47:57;;;;;;;;;;;15.40;98.70;;;;;;5076788;28;19924;-65
2022/11/29 12:50:29;;;;;;;;;;;15.40;98.70;;;;;;5075239;28;19931;-65
2022/11/29 12:53:06;;;;;;;;;;;15.30;98.60;;;;;;5076456;28;20405;-65
2022/11/29 12:55:32;;;;;;;;;;;15.50;98.60;;;;;;5070141;28;20019;-65
2022/11/29 12:57:58;;;;;;;;;;;15.50;98.70;;;;;;5056980;28;20019;-66
2022/11/29 13:00:23;;;;;;;;;;;15.60;98.60;;;;;;5056630;28;19983;-72
2022/11/29 13:02:52;;;;;;;;;;;15.50;98.70;;;;;;5055408;28;20063;-66
2022/11/29 13:05:28;;;;;;;;;;;15.30;98.60;;;;;;5054984;28;19931;-65
2022/11/29 13:07:57;;;;;;;;;;;15.60;98.60;;;;;;5055546;28;19986;-65
2022/11/29 13:10:23;;;;;;;;;;;;;;;;;;5043883;28;20293;-65
2022/11/29 13:12:49;;;;;;;;;;;;;;;;;;5066170;28;19925;-73
2022/11/29 13:15:15;;;;;;;;;;;15.50;98.60;;;;;;5054679;28;19932;-75
2022/11/29 13:17:41;;;;;;;;;;;;;;;;;;5056222;28;20302;-72
2022/11/29 13:20:25;;;;;;;;;;;15.60;98.60;;;;;;5056178;28;19921;-66
2022/11/29 13:22:53;;;;;;;;;;;15.70;98.60;;;;;;5059941;28;20394;-66
2022/11/29 13:25:28;;;;;;;;;;;15.40;98.50;;;;;;5074563;28;19967;-66
2022/11/29 13:28:00;;;;;;;;;;;15.50;98.50;;;;;;5076424;28;19925;-67
2022/11/29 13:30:26;;;;;;;;;;;15.70;98.60;;;;;;5061743;28;19932;-66
2022/11/29 13:32:52;;;;;;;;;;;15.70;98.60;;;;;;5054523;28;19928;-67
2022/11/29 13:35:47;;;;;;;;;;;15.60;98.60;;;;;;5055941;28;19940;-65
2022/11/29 13:38:13;;;;;;;;;;;;;;;;;;5033637;28;19965;-67
2022/11/29 13:40:58;;;;;;;;;;;15.70;98.50;;;;;;5050032;28;20016;-65
2022/11/29 13:43:27;;;;;;;;;;;15.60;98.50;;;;;;5033434;28;19925;-66
2022/11/29 13:46:13;;;;;;;;;;;15.60;98.50;;;;;;5033443;28;19925;-66
2022/11/29 13:48:39;;;;;;;;;;;;;;;;;;5046293;28;19968;-66
2022/11/29 13:51:23;;;;;;;;;;;15.90;98.60;;;;;;5036714;28;19931;-66
2022/11/29 13:53:48;;;;;;;;;;;15.70;98.60;;;;;;5036500;28;19924;-66
2022/11/29 13:56:28;;;;;;;;;;;15.40;98.50;;;;;;5053627;28;19931;-66
2022/11/29 13:58:54;;;;;;;;;;;15.60;98.20;;;;;;5053406;28;20313;-66
2022/11/29 14:01:21;;;;;;;;;;;15.50;97.60;;;;;;5036609;28;19924;-66
2022/11/29 14:04:07;;;;;;;;;;;15.60;97.20;;;;;;5036430;28;19921;-65
2022/11/29 14:06:32;;;;;;;;;;;15.50;97.30;;;;;;5045886;28;20007;-67
2022/11/29 14:09:20;;;;;;;;;;;15.20;97.60;;;;;;5070032;28;19971;-67
2022/11/29 14:11:47;;;;;;;;;;;15.60;97.80;;;;;;5052742;28;19940;-67
2022/11/29 14:14:16;;;;;;;;;;;15.30;97.80;;;;;;5041339;28;20413;-73
2022/11/29 14:16:42;;;;;;;;;;;15.30;98.00;;;;;;5035252;28;19972;-74
2022/11/29 14:19:07;;;;;;;;;;;15.60;98.10;;;;;;5034904;28;19972;-67
2022/11/29 14:22:12;;;;;;;;;;;15.30;98.10;;;;;;5048009;28;19979;-67
2022/11/29 14:24:38;;;;;;;;;;;15.50;98.20;;;;;;5052628;28;19924;-66
2022/11/29 14:27:07;;;;;;;;;;;15.40;98.20;;;;;;5052619;28;20023;-67
2022/11/29 14:30:02;;;;;;;;;;;15.60;98.30;;;;;;5053362;28;20300;-74
2022/11/29 14:32:36;;;;;;;;;;;15.40;98.20;;;;;;5040612;28;19959;-70
2022/11/29 14:35:02;;;;;;;;;;;;;;;;;;5033903;28;20010;-70
2022/11/29 14:37:33;;;;;;;;;;;15.50;98.30;;;;;;5050629;28;20476;-67
2022/11/29 14:40:00;;;;;;;;;;;15.50;98.30;;;;;;5019385;28;19970;-68
2022/11/29 14:42:25;;;;;;;;;;;15.50;98.30;;;;;;5052211;28;19925;-67
2022/11/29 14:44:57;;;;;;;;;;;15.50;98.20;;;;;;5035571;28;19931;-67
2022/11/29 14:47:25;;;;;;;;;;;15.50;98.20;;;;;;5018368;28;19931;-67
2022/11/29 14:49:52;;;;;;;;;;;15.40;98.10;;;;;;5035481;28;19955;-67